Time;durP1;ratioP1;P1;durP2;ratioP2;P2;SDS_P1;SDS_P2;PMS_P1;PMS_P2;Temp;Humidity;BMP_temperature;BMP_pressure;BME280_temperature;BME280_humidity;BME280_pressure;Samples;Min_cycle;Max_cycle;Signal;HPM_P1;HPM_P2
2023/01/13 00:02:21;;;;;;;21.70;14.05;;;;;;;0.74;100.00;100869.28;5001073;28;20050;-78
2023/01/13 00:04:46;;;;;;;27.38;14.05;;;;;;;-0.48;100.00;100730.97;5002424;28;20054;-76
2023/01/13 00:07:12;;;;;;;22.83;13.10;;;;;;;0.29;100.00;100879.19;4994101;28;20235;-76
2023/01/13 00:09:37;;;;;;;31.25;19.10;;;;;;;-0.34;100.00;100742.84;4998856;28;20041;-76
2023/01/13 00:12:04;;;;;;;28.17;15.00;;;;;;;0.38;100.00;100843.50;5004826;28;20041;-75
2023/01/13 00:14:33;;;;;;;25.10;14.25;;;;;;;-0.33;100.00;100785.88;5002876;28;20054;-75
2023/01/13 00:16:58;;;;;;;27.17;12.93;;;;;;;0.03;100.00;100865.88;4996051;28;20053;-77
2023/01/13 00:19:24;;;;;;;29.25;16.88;;;;;;;0.15;100.00;100881.94;5000777;28;20073;-76
2023/01/13 00:21:49;;;;;;;26.85;14.90;;;;;;;-0.20;100.00;100771.88;4999527;28;20788;-77
2023/01/13 00:24:15;;;;;;;24.02;14.40;;;;;;;-0.73;100.00;100721.13;4998833;28;20723;-76
2023/01/13 00:26:40;;;;;;;25.17;14.32;;;;;;;0.16;100.00;100860.53;5004604;28;20470;-75
2023/01/13 00:29:05;;;;;;;36.35;16.17;;;;;;;0.37;100.00;100877.84;5004113;28;20556;-76
2023/01/13 00:31:31;;;;;;;26.30;16.65;;;;;;;-0.25;100.00;100752.75;5001236;28;20502;-75
2023/01/13 00:33:59;;;;;;;20.30;12.90;;;;;;;0.30;100.00;100884.38;5003749;28;20057;-76
2023/01/13 00:36:24;;;;;;;21.80;14.25;;;;;;;0.13;100.00;100857.78;5007364;28;20045;-76
2023/01/13 00:38:50;;;;;;;22.05;13.68;;;;;;;0.24;100.00;100836.78;5006091;28;20046;-75
2023/01/13 00:41:21;;;;;;;24.33;13.32;;;;;;;0.02;100.00;100775.50;5007504;28;20046;-76
2023/01/13 00:43:48;;;;;;;23.25;16.08;;;;;;;0.66;100.00;100887.00;5009995;28;20053;-75
2023/01/13 00:46:17;;;;;;;27.25;15.63;;;;;;;0.15;100.00;100771.00;5007729;28;20045;-75
2023/01/13 00:48:43;;;;;;;26.42;14.13;;;;;;;1.00;100.00;100896.31;5001534;28;20064;-76
2023/01/13 00:51:18;;;;;;;26.52;14.38;;;;;;;0.35;100.00;100786.53;5001769;28;20053;-75
2023/01/13 00:53:46;;;;;;;24.27;14.45;;;;;;;0.99;100.00;100887.69;5006148;28;20073;-75
2023/01/13 00:56:22;;;;;;;22.88;12.95;;;;;;;0.74;100.00;100874.44;5005668;28;20537;-76
2023/01/13 00:58:48;;;;;;;25.08;14.10;;;;;;;0.98;100.00;100906.59;5014194;28;20046;-76
2023/01/13 01:01:18;;;;;;;23.45;12.98;;;;;;;0.19;100.00;100778.09;5005946;28;20407;-76
2023/01/13 01:03:47;;;;;;;20.13;12.57;;;;;;;1.09;100.00;100907.06;5011122;28;20033;-75
2023/01/13 01:06:16;;;;;;;27.48;13.90;;;;;;;1.21;100.00;100896.41;5008563;28;20490;-75
2023/01/13 01:08:42;;;;;;;22.63;12.10;;;;;;;1.17;100.00;100903.16;5008444;28;20049;-75
2023/01/13 01:11:11;;;;;;;18.20;11.95;;;;;;;0.47;100.00;100787.13;5003870;28;20042;-75
2023/01/13 01:13:37;;;;;;;24.58;14.05;;;;;;;1.19;100.00;100904.09;4999638;28;20049;-78
2023/01/13 01:16:08;;;;;;;21.13;12.18;;;;;;;0.98;100.00;100856.59;5008146;28;20064;-76
2023/01/13 01:18:35;;;;;;;19.77;12.02;;;;;;;1.26;100.00;100929.44;5007341;28;20029;-75
2023/01/13 01:21:02;;;;;;;20.40;12.63;;;;;;;0.65;100.00;100921.34;5015267;28;20128;-78
2023/01/13 01:23:28;;;;;;;23.48;13.90;;;;;;;0.82;100.00;100896.34;5004405;28;20056;-77
2023/01/13 01:25:54;;;;;;;19.08;12.80;;;;;;;0.69;100.00;100817.41;5017290;28;20069;-76
2023/01/13 01:28:20;;;;;;;20.90;12.05;;;;;;;1.37;100.00;100911.78;5014679;28;20088;-74
2023/01/13 01:30:45;;;;;;;18.65;12.32;;;;;;;0.11;100.00;100797.47;5013578;28;20474;-77
2023/01/13 01:33:11;;;;;;;17.75;12.65;;;;;;;1.10;100.00;100933.78;5016402;28;20049;-78
2023/01/13 01:35:40;;;;;;;24.70;13.93;;;;;;;0.54;100.00;100808.94;5008646;28;20054;-74
2023/01/13 01:38:05;;;;;;;23.27;13.90;;;;;;;1.32;100.00;100938.28;5030472;28;20070;-76
2023/01/13 01:40:31;;;;;;;22.58;15.50;;;;;;;0.86;100.00;100856.03;5014808;28;20402;-77
2023/01/13 01:45:40;;;;;;;27.52;15.75;;;;;;;0.73;100.00;100827.06;5009014;28;20060;-76
2023/01/13 01:48:07;;;;;;;23.15;13.48;;;;;;;1.36;100.00;100942.75;5018799;28;20054;-76
2023/01/13 01:50:33;;;;;;;21.73;13.45;;;;;;;1.35;100.00;100923.75;5016817;28;20069;-76
2023/01/13 01:53:10;;;;;;;22.33;13.02;;;;;;;0.66;100.00;100829.31;5011687;28;20068;-76
2023/01/13 01:55:37;;;;;;;25.52;14.65;;;;;;;1.25;100.00;100932.81;5012048;28;20044;-77
2023/01/13 01:58:19;;;;;;;25.95;12.93;;;;;;;1.33;100.00;100959.00;5007556;28;20207;-76
2023/01/13 02:00:45;;;;;;;22.10;12.57;;;;;;;0.49;100.00;100849.13;5012267;28;20034;-76
2023/01/13 02:03:10;;;;;;;23.08;14.40;;;;;;;0.64;100.00;100844.72;5013304;28;20525;-76
2023/01/13 02:05:37;;;;;;;25.98;15.32;;;;;;;0.70;100.00;100888.88;5014706;28;20053;-76
2023/01/13 02:08:04;;;;;;;21.65;12.73;;;;;;;0.36;100.00;100852.84;5018802;28;20057;-75
2023/01/13 02:10:31;;;;;;;23.30;13.27;;;;;;;0.99;100.00;100969.47;5004600;28;20065;-75
2023/01/13 02:13:02;;;;;;;19.75;12.30;;;;;;;0.70;100.00;100849.28;5020529;28;20120;-75
2023/01/13 02:15:37;;;;;;;22.40;13.10;;;;;;;1.09;100.00;100961.34;5016406;28;20033;-75
2023/01/13 02:18:35;;;;;;;26.58;16.02;;;;;;;1.25;100.00;100970.69;5010788;28;20046;-75
2023/01/13 02:21:14;;;;;;;24.65;13.35;;;;;;;0.54;100.00;100866.66;4991772;28;20069;-77
2023/01/13 02:27:07;;;;;;;34.50;14.55;;;;;;;0.67;100.00;100953.31;5009970;28;20056;-77
2023/01/13 02:33:04;;;;;;;18.27;11.35;;;;;;;0.65;100.00;100936.84;5011654;28;20099;-77
2023/01/13 02:35:46;;;;;;;28.25;13.57;;;;;;;-0.27;100.00;100783.59;5008229;28;20056;-77
2023/01/13 02:38:14;;;;;;;27.75;14.55;;;;;;;0.66;100.00;100911.94;5009487;28;20242;-77
2023/01/13 02:40:49;;;;;;;35.15;18.70;;;;;;;0.59;100.00;100934.88;5004094;28;20046;-78
2023/01/13 02:46:24;;;;;;;18.42;12.98;;;;;;;0.96;100.00;100908.22;5010072;28;20045;-76
2023/01/13 02:48:53;;;;;;;18.02;11.98;;;;;;;0.53;100.00;100887.22;5008304;28;20104;-74
2023/01/13 02:51:24;;;;;;;21.08;12.98;;;;;;;0.86;100.00;100915.44;5005259;28;20116;-75
2023/01/13 02:53:49;;;;;;;23.95;16.00;;;;;;;0.82;100.00;100909.28;5003633;28;20054;-76
2023/01/13 02:56:16;;;;;;;22.60;14.23;;;;;;;1.11;100.00;100902.00;5005524;28;20096;-76
2023/01/13 02:58:44;;;;;;;29.60;15.15;;;;;;;0.92;100.00;100903.72;5008905;28;20045;-76
2023/01/13 03:01:10;;;;;;;24.40;16.23;;;;;;;0.84;100.00;100907.63;5009797;28;20117;-76
2023/01/13 03:03:35;;;;;;;20.60;13.35;;;;;;;1.09;100.00;100907.06;5012933;28;20508;-76
2023/01/13 03:06:32;;;;;;;21.35;13.35;;;;;;;0.60;100.00;100894.44;5007796;28;20049;-76
2023/01/13 03:09:28;;;;;;;23.75;15.00;;;;;;;0.73;100.00;100909.72;5003740;28;20120;-75
2023/01/13 03:12:13;;;;;;;20.88;12.60;;;;;;;0.64;100.00;100919.59;5005659;28;20481;-77
2023/01/13 03:14:49;;;;;;;20.83;13.43;;;;;;;0.40;100.00;100849.63;4999148;28;20050;-78
2023/01/13 03:17:34;;;;;;;25.48;14.00;;;;;;;0.60;100.00;100912.50;5005933;28;20069;-78
2023/01/13 03:20:06;;;;;;;21.08;13.77;;;;;;;0.60;100.00;100920.25;5013965;28;20049;-75
2023/01/13 03:22:47;;;;;;;21.38;12.15;;;;;;;0.54;100.00;100888.97;5000735;28;20050;-78
2023/01/13 03:25:24;;;;;;;22.90;14.55;;;;;;;0.54;100.00;100827.91;4997771;28;20034;-75
2023/01/13 03:27:58;;;;;;;27.55;17.38;;;;;;;1.15;100.00;100914.25;5006491;28;20036;-76
2023/01/13 03:30:35;;;;;;;22.33;14.55;;;;;;;1.20;100.00;100916.22;5005584;28;20101;-75
2023/01/13 03:33:14;;;;;;;23.17;14.98;;;;;;;1.05;100.00;100923.25;5014176;28;20056;-77
2023/01/13 03:35:44;;;;;;;32.38;15.57;;;;;;;1.32;100.00;100928.81;5003106;28;20100;-77
2023/01/13 03:38:15;;;;;;;36.03;19.83;;;;;;;0.63;100.00;100874.81;5005848;28;20050;-77
2023/01/13 03:40:57;;;;;;;41.95;21.55;;;;;;;0.75;100.00;100892.59;5012922;28;20084;-77
2023/01/13 03:46:21;;;;;;;33.85;19.73;;;;;;;1.00;100.00;100928.19;5005285;28;20096;-76
2023/01/13 03:48:51;;;;;;;26.43;17.43;;;;;;;0.69;100.00;100915.53;4999040;28;20038;-76
2023/01/13 03:51:20;;;;;;;30.77;18.30;;;;;;;0.56;100.00;100890.84;5000405;28;20451;-76
2023/01/13 03:53:51;;;;;;;25.88;14.43;;;;;;;0.02;100.00;100798.72;5013616;28;20042;-75
2023/01/13 03:56:25;;;;;;;25.30;16.00;;;;;;;0.48;100.00;100896.44;5002573;28;20062;-76
2023/01/13 03:58:52;;;;;;;25.17;15.55;;;;;;;-0.01;100.00;100791.72;5003478;28;20106;-77
2023/01/13 04:01:23;;;;;;;26.67;16.20;;;;;;;0.03;100.00;100775.59;5012577;28;20418;-75
2023/01/13 04:03:59;;;;;;;32.65;18.75;;;;;;;0.94;100.00;100921.88;5002568;28;20034;-76
2023/01/13 04:06:37;;;;;;;25.00;16.77;;;;;;;-0.05;100.00;100771.75;5005714;28;20053;-77
2023/01/13 04:09:14;;;;;;;28.33;14.90;;;;;;;1.07;100.00;100900.94;5016732;28;20078;-76
2023/01/13 04:11:54;;;;;;;28.33;16.65;;;;;;;0.68;100.00;100890.53;5007007;28;20042;-76
2023/01/13 04:14:23;;;;;;;27.15;16.15;;;;;;;0.27;100.00;100803.38;5000697;28;20072;-75
2023/01/13 04:16:48;;;;;;;24.83;13.82;;;;;;;-0.10;100.00;100775.78;5005960;28;20086;-77
2023/01/13 04:19:14;;;;;;;30.80;15.57;;;;;;;0.46;100.00;100874.81;5007069;28;20168;-77
2023/01/13 04:21:39;;;;;;;35.05;18.15;;;;;;;0.84;100.00;100881.78;5007938;28;20554;-77
2023/01/13 04:24:05;;;;;;;36.10;18.67;;;;;;;0.62;100.00;100779.19;5005658;28;20046;-76
2023/01/13 04:26:30;;;;;;;24.10;16.55;;;;;;;0.43;100.00;100745.63;5006589;28;20820;-76
2023/01/13 04:28:56;;;;;;;28.33;17.65;;;;;;;0.31;100.00;100766.59;5006136;28;20509;-77
2023/01/13 04:31:21;;;;;;;30.70;16.23;;;;;;;-0.01;100.00;100755.59;4991702;28;20405;-78
2023/01/13 04:33:47;;;;;;;32.33;15.70;;;;;;;0.88;100.00;100857.88;5005322;28;20038;-77
2023/01/13 04:36:14;;;;;;;35.60;19.13;;;;;;;1.22;100.00;100867.19;5007738;28;20051;-78
2023/01/13 04:38:40;;;;;;;30.02;18.17;;;;;;;0.79;100.00;100780.84;5006202;28;20085;-78
2023/01/13 04:41:05;;;;;;;30.25;14.00;;;;;;;1.41;100.00;100895.63;5005182;28;20077;-75
2023/01/13 04:43:31;;;;;;;25.48;14.80;;;;;;;1.33;100.00;100863.34;5006498;28;20064;-74
2023/01/13 04:45:56;;;;;;;29.55;17.27;;;;;;;1.34;100.00;100888.41;5001336;28;20026;-77
2023/01/13 04:48:22;;;;;;;26.63;15.57;;;;;;;0.46;100.00;100782.75;5010641;28;20033;-78
2023/01/13 04:50:47;;;;;;;24.20;14.27;;;;;;;1.49;100.00;100908.88;5010936;28;20100;-76
2023/01/13 04:53:12;;;;;;;24.08;15.40;;;;;;;1.42;100.00;100896.50;5004057;28;20398;-78
2023/01/13 04:55:38;;;;;;;29.40;17.08;;;;;;;1.14;100.00;100921.09;4999822;28;20417;-77
2023/01/13 04:58:08;;;;;;;26.90;15.43;;;;;;;1.12;100.00;100937.34;5003761;28;20037;-77
2023/01/13 05:00:35;;;;;;;24.45;16.02;;;;;;;1.39;100.00;100915.34;5007423;28;20053;-77
2023/01/13 05:03:01;;;;;;;29.08;15.15;;;;;;;0.82;100.00;100795.63;5008030;28;20045;-74
2023/01/13 05:05:28;;;;;;;35.67;18.92;;;;;;;0.59;100.00;100792.88;5004442;28;20058;-74
2023/01/13 05:07:54;;;;;;;28.38;17.25;;;;;;;0.88;100.00;100797.59;5001976;28;20054;-75
2023/01/13 05:10:20;;;;;;;36.10;18.45;;;;;;;1.60;100.00;100919.72;5008606;28;20042;-75
2023/01/13 05:18:21;;;;;;;29.27;18.80;;;;;;;1.11;100.00;100807.25;4996735;28;20418;-75
2023/01/13 05:20:48;;;;;;;27.00;17.55;;;;;;;1.11;100.00;100808.97;5001748;28;20050;-78
2023/01/13 05:25:58;;;;;;;36.92;20.38;;;;;;;1.84;100.00;100946.63;5008734;28;20457;-77
2023/01/13 05:28:23;;;;;;;35.05;19.27;;;;;;;1.94;100.00;100923.75;5009466;28;20046;-75
2023/01/13 05:30:49;;;;;;;40.42;21.20;;;;;;;1.84;100.00;100913.00;4999184;28;20026;-77
2023/01/13 05:33:19;;;;;;;29.80;19.50;;;;;;;1.30;100.00;100824.44;5005933;28;20038;-76
2023/01/13 05:35:45;;;;;;;34.10;19.48;;;;;;;1.37;100.00;100833.38;4999423;28;20069;-75
2023/01/13 05:38:11;;;;;;;33.42;21.98;;;;;;;1.75;100.00;100920.38;5006042;28;20045;-78
2023/01/13 05:43:23;;;;;;;38.75;22.30;;;;;;;1.97;100.00;100958.44;4999551;28;20463;-77
2023/01/13 05:45:57;;;;;;;40.97;22.60;;;;;;;1.75;100.00;100912.59;5005001;28;20752;-78
2023/01/13 05:48:29;;;;;;;38.17;21.73;;;;;;;1.95;100.00;100936.78;5009933;28;20045;-75
2023/01/13 05:50:55;;;;;;;35.45;19.13;;;;;;;1.28;100.00;100836.41;5007800;28;20058;-76
2023/01/13 05:53:21;;;;;;;29.67;19.80;;;;;;;1.95;100.00;100935.91;5013216;28;20175;-75
2023/01/13 05:55:47;;;;;;;44.90;22.98;;;;;;;2.04;100.00;100952.69;5002288;28;20516;-76
2023/01/13 05:58:15;;;;;;;43.00;23.35;;;;;;;1.87;100.00;100948.47;5005904;28;20159;-76
2023/01/13 06:00:40;;;;;;;28.83;19.48;;;;;;;2.01;100.00;100973.25;5002800;28;20038;-77
2023/01/13 06:03:06;;;;;;;37.15;21.27;;;;;;;2.02;100.00;100984.50;5010657;28;20120;-76
2023/01/13 06:05:32;;;;;;;33.33;20.20;;;;;;;1.39;100.00;100867.94;5007797;28;20153;-77
2023/01/13 06:08:00;;;;;;;42.08;25.92;;;;;;;1.67;100.00;100899.34;5007220;28;20665;-77
2023/01/13 06:10:26;;;;;;;37.38;20.63;;;;;;;2.14;100.00;100995.38;4994872;28;21114;-76
2023/01/13 06:12:51;;;;;;;36.20;20.23;;;;;;;1.93;100.00;101005.69;5008812;28;20192;-76
2023/01/13 06:15:17;;;;;;;30.73;19.83;;;;;;;1.60;100.00;100919.72;5011730;28;20549;-76
2023/01/13 06:17:43;;;;;;;35.80;20.90;;;;;;;1.50;100.00;100886.47;5013106;28;20038;-76
2023/01/13 06:20:10;;;;;;;37.35;18.33;;;;;;;1.52;100.00;100919.34;5008956;28;20057;-77
2023/01/13 06:22:38;;;;;;;28.25;17.15;;;;;;;2.20;100.00;101024.16;5005663;28;20077;-75
2023/01/13 06:25:22;;;;;;;29.73;17.10;;;;;;;2.18;100.00;101018.00;5008562;28;20061;-76
2023/01/13 06:27:48;;;;;;;;;;;;;;;2.21;100.00;101037.97;5003396;28;20049;-74
2023/01/13 06:30:13;;;;;;;28.98;16.73;;;;;;;1.43;100.00;100944.81;5004158;28;20300;-76
2023/01/13 06:32:44;;;;;;;26.98;15.38;;;;;;;1.54;100.00;100924.59;5001496;28;20046;-77
2023/01/13 06:35:14;;;;;;;31.65;19.95;;;;;;;1.64;100.00;100924.22;5008747;28;20073;-74
2023/01/13 06:37:43;;;;;;;33.97;19.15;;;;;;;2.17;100.00;101017.94;5007413;28;20049;-76
2023/01/13 06:40:11;;;;;;;29.77;18.30;;;;;;;1.64;100.00;100935.44;5000825;28;20037;-75
2023/01/13 06:45:24;;;;;;;26.58;15.80;;;;;;;1.98;100.00;100993.81;4994133;28;20791;-77
2023/01/13 06:47:50;;;;;;;34.90;19.20;;;;;;;2.35;100.00;101056.69;5004658;28;20053;-78
2023/01/13 06:50:19;;;;;;;24.60;15.60;;;;;;;2.47;100.00;101055.50;5006466;28;20046;-78
2023/01/13 06:52:45;;;;;;;32.28;18.17;;;;;;;2.40;100.00;101035.34;5006364;28;20049;-77
2023/01/13 06:55:10;;;;;;;28.77;18.83;;;;;;;2.08;100.00;101010.63;5005873;28;20363;-77
2023/01/13 06:57:50;;;;;;;36.42;20.30;;;;;;;1.72;100.00;100942.66;5007574;28;20042;-78
2023/01/13 07:00:15;;;;;;;26.52;16.30;;;;;;;2.14;100.00;101025.56;5001498;28;20061;-78
2023/01/13 07:02:41;;;;;;;30.73;18.38;;;;;;;2.54;100.00;101060.13;5005224;28;20042;-78
2023/01/13 07:05:07;;;;;;;28.13;17.85;;;;;;;2.62;100.00;101078.63;5002255;28;20045;-77
2023/01/13 07:07:32;;;;;;;30.52;17.42;;;;;;;2.30;100.00;101043.53;4994953;28;20034;-77
2023/01/13 07:09:58;;;;;;;24.45;16.20;;;;;;;1.90;100.00;100959.84;5012072;28;20131;-78
2023/01/13 07:12:24;;;;;;;28.17;15.65;;;;;;;2.61;100.00;101086.31;5006228;28;20365;-77
2023/01/13 07:17:33;;;;;;;27.58;17.55;;;;;;;2.17;100.00;100992.03;5006191;28;20057;-78
2023/01/13 07:19:59;;;;;;;30.65;15.98;;;;;;;2.06;100.00;100984.72;5003729;28;20046;-78
2023/01/13 07:22:24;;;;;;;29.40;17.45;;;;;;;2.80;100.00;101112.19;4997544;28;20050;-76
2023/01/13 07:24:50;;;;;;;26.90;14.48;;;;;;;2.70;100.00;101128.16;4995804;28;20025;-76
2023/01/13 07:27:16;;;;;;;42.83;18.70;;;;;;;2.69;100.00;101119.50;5007650;28;20523;-76
2023/01/13 07:29:42;;;;;;;26.00;15.73;;;;;;;2.00;100.00;101035.31;5000551;28;20062;-75
2023/01/13 07:32:08;;;;;;;22.48;14.27;;;;;;;2.05;100.00;101010.50;4998971;28;20108;-74
2023/01/13 07:34:33;;;;;;;32.70;16.92;;;;;;;2.66;100.00;101121.94;4993725;28;20491;-76
2023/01/13 07:36:59;;;;;;;23.73;14.52;;;;;;;2.71;100.00;101117.84;4996806;28;20458;-76
2023/01/13 07:39:25;;;;;;;30.45;16.65;;;;;;;3.01;100.00;101148.50;5006069;28;20144;-76
2023/01/13 07:44:34;;;;;;;32.97;19.17;;;;;;;3.21;100.00;101140.66;5002094;28;20072;-77
2023/01/13 07:46:59;;;;;;;33.20;18.60;;;;;;;2.96;100.00;101142.22;5001265;28;20089;-77
2023/01/13 07:49:25;;;;;;;33.17;21.88;;;;;;;3.04;100.00;101146.00;5003304;28;20122;-79
2023/01/13 07:51:51;;;;;;;32.38;19.15;;;;;;;2.69;100.00;101069.38;5007691;28;20038;-76
2023/01/13 07:54:16;;;;;;;29.40;15.13;;;;;;;3.17;100.00;101152.63;5010105;28;20374;-75
2023/01/13 07:56:42;;;;;;;29.38;16.63;;;;;;;2.50;100.00;101036.63;4996057;28;20049;-73
2023/01/13 07:59:07;;;;;;;33.38;20.50;;;;;;;2.68;100.00;101047.75;5008371;28;20426;-73
2023/01/13 08:01:32;;;;;;;27.80;17.67;;;;;;;2.45;100.00;101057.13;5006132;28;20386;-74
2023/01/13 08:03:58;;;;;;;29.83;17.83;;;;;;;3.38;100.00;101157.81;5012429;28;20025;-74
2023/01/13 08:06:24;;;;;;;31.50;20.05;;;;;;;2.99;100.00;101082.72;5004319;28;20038;-73
2023/01/13 08:08:50;;;;;;;26.13;15.75;;;;;;;3.43;100.00;101169.25;5004623;28;20119;-74
2023/01/13 08:11:16;;;;;;;27.17;16.45;;;;;;;2.72;100.00;101051.38;5000598;28;20042;-74
2023/01/13 08:13:41;;;;;;;31.70;18.02;;;;;;;2.91;100.00;101082.41;4997752;28;20053;-76
2023/01/13 08:16:09;;;;;;;27.67;15.43;;;;;;;3.46;100.00;101160.72;4999348;28;20042;-76
2023/01/13 08:18:37;;;;;;;41.90;20.60;;;;;;;3.04;100.00;101095.88;4993327;28;20037;-77
2023/01/13 08:21:06;;;;;;;40.70;19.73;;;;;;;3.52;100.00;101181.72;5006355;28;20077;-75
2023/01/13 08:23:32;;;;;;;27.60;17.70;;;;;;;3.29;100.00;101162.63;5006304;28;20406;-77
2023/01/13 08:26:02;;;;;;;27.75;18.83;;;;;;;3.58;100.00;101187.16;5006137;28;20057;-75
2023/01/13 08:28:30;;;;;;;26.60;18.75;;;;;;;2.92;100.00;101067.75;4997229;28;20096;-75
2023/01/13 08:30:58;;;;;;;24.90;18.23;;;;;;;2.72;100.00;101054.84;5001787;28;20038;-77
2023/01/13 08:33:24;;;;;;;29.50;18.75;;;;;;;2.77;100.00;101065.41;5012335;28;20034;-76
2023/01/13 08:35:52;;;;;;;32.88;19.67;;;;;;;3.77;100.00;101194.00;5006619;28;20048;-76
2023/01/13 08:38:17;;;;;;;40.40;19.33;;;;;;;3.85;100.00;101181.31;4999334;28;20077;-76
2023/01/13 08:40:43;;;;;;;32.33;18.83;;;;;;;3.74;100.00;101175.69;4999310;28;20123;-76
2023/01/13 08:43:08;;;;;;;32.42;20.58;;;;;;;3.19;100.00;101101.72;5005256;28;20443;-76
2023/01/13 08:45:34;;;;;;;30.33;18.15;;;;;;;3.76;100.00;101194.81;5006928;28;20466;-77
2023/01/13 08:48:00;;;;;;;35.35;21.95;;;;;;;4.04;100.00;101196.78;5006891;28;20041;-75
2023/01/13 08:50:25;;;;;;;46.65;19.02;;;;;;;3.64;100.00;101108.69;5010694;28;20052;-76
2023/01/13 08:52:51;;;;;;;26.17;18.45;;;;;;;3.99;100.00;101172.34;5006422;28;20042;-76
2023/01/13 08:55:16;;;;;;;27.13;16.73;;;;;;;4.05;100.00;101179.47;4996443;28;20133;-76
2023/01/13 08:57:42;;;;;;;36.72;18.98;;;;;;;4.02;100.00;101177.66;4999250;28;20088;-76
2023/01/13 09:00:08;;;;;;;28.27;16.80;;;;;;;3.88;100.00;101184.91;4993287;28;20062;-76
2023/01/13 09:02:34;;;;;;;25.63;17.95;;;;;;;3.73;100.00;101169.63;4997335;28;20049;-75
2023/01/13 09:05:02;;;;;;;26.17;16.55;;;;;;;3.06;100.00;101057.94;5007824;28;20046;-76
2023/01/13 09:07:28;;;;;;;25.02;17.38;;;;;;;4.04;100.00;101175.13;5007057;28;20478;-76
2023/01/13 09:09:55;;;;;;;32.40;17.52;;;;;;;3.66;100.00;101109.63;5004821;28;20046;-76
2023/01/13 09:15:05;;;;;;;38.13;19.92;;;;;;;3.66;100.00;101068.09;5004596;28;20101;-75
2023/01/13 09:17:30;;;;;;;28.42;17.35;;;;;;;4.22;100.00;101162.84;5001037;28;20565;-75
2023/01/13 09:19:56;;;;;;;26.83;17.98;;;;;;;4.33;100.00;101182.34;4999719;28;20125;-75
2023/01/13 09:22:25;;;;;;;27.02;15.40;;;;;;;3.51;100.00;101045.94;5006953;28;20049;-75
2023/01/13 09:24:51;;;;;;;24.77;17.17;;;;;;;3.63;100.00;101058.50;4997604;28;20571;-78
2023/01/13 09:27:17;;;;;;;26.02;15.52;;;;;;;4.26;100.00;101184.63;5004670;28;20062;-76
2023/01/13 09:29:42;;;;;;;25.10;17.02;;;;;;;4.15;100.00;101187.69;5005472;28;20049;-78
2023/01/13 09:32:12;;;;;;;28.13;16.50;;;;;;;4.40;100.00;101194.72;4997829;28;20042;-75
2023/01/13 09:37:23;;;;;;;23.35;14.90;;;;;;;4.31;100.00;101181.38;5003691;28;20111;-77
2023/01/13 09:39:48;;;;;;;19.95;13.88;;;;;;;3.50;100.00;101053.66;5002360;28;20061;-77
2023/01/13 09:45:18;;;;;;;25.60;15.15;;;;;;;4.44;100.00;101183.59;5009059;28;20141;-76
2023/01/13 09:48:01;;;;;;;19.38;12.65;;;;;;;4.43;100.00;101189.63;5007322;28;20133;-76
2023/01/13 09:50:42;;;;;;;;;;;;;;;4.52;100.00;101177.78;5003565;28;20156;-77
2023/01/13 09:53:18;;;;;;;23.63;15.27;;;;;;;4.51;100.00;101181.22;5009533;28;19928;-76
2023/01/13 09:55:44;;;;;;;38.22;17.45;;;;;;;4.50;100.00;101167.38;5005506;28;20041;-75
2023/01/13 09:58:19;;;;;;;27.83;18.88;;;;;;;4.47;100.00;101138.63;5008755;28;20053;-76
2023/01/13 10:00:59;;;;;;;27.05;17.58;;;;;;;4.46;100.00;101175.88;5014601;28;20034;-75
2023/01/13 10:03:30;;;;;;;29.95;18.83;;;;;;;4.22;100.00;101171.53;5005916;28;20057;-76
2023/01/13 10:06:07;;;;;;;26.58;18.05;;;;;;;4.09;100.00;101077.50;5009836;28;20056;-77
2023/01/13 10:08:40;;;;;;;28.73;19.00;;;;;;;4.56;100.00;101171.88;5007205;28;20065;-77
2023/01/13 10:14:18;;;;;;;33.80;20.13;;;;;;;4.34;100.00;101134.72;5009980;28;20103;-75
2023/01/13 10:17:01;;;;;;;36.22;19.80;;;;;;;4.46;100.00;101142.09;5005227;28;20561;-76
2023/01/13 10:20:04;;;;;;;41.83;20.05;;;;;;;4.56;100.00;101151.97;5011459;28;20049;-75
2023/01/13 10:22:53;;;;;;;34.67;20.55;;;;;;;4.27;100.00;101105.88;5003507;28;20225;-77
2023/01/13 10:25:34;;;;;;;38.35;21.23;;;;;;;4.70;100.00;101147.28;5007051;28;20052;-77
2023/01/13 10:28:18;;;;;;;31.73;21.25;;;;;;;3.39;100.00;101016.91;5003422;28;20827;-77
2023/01/13 10:30:45;;;;;;;30.52;20.45;;;;;;;4.27;100.00;101137.06;4999230;28;20038;-77
2023/01/13 10:33:20;;;;;;;30.10;19.63;;;;;;;3.94;100.00;101013.81;5008559;28;20137;-75
2023/01/13 10:36:01;;;;;;;32.40;23.10;;;;;;;4.21;100.00;101141.19;4997343;28;20481;-75
2023/01/13 10:38:43;;;;;;;52.53;21.42;;;;;;;4.60;100.00;101138.25;4996523;28;20054;-75
2023/01/13 10:41:14;;;;;;;27.42;19.58;;;;;;;4.60;100.00;101137.38;5002108;28;20112;-75
2023/01/13 10:44:03;;;;;;;52.63;23.70;;;;;;;4.70;100.00;101121.28;5001798;28;20054;-75
2023/01/13 10:46:34;;;;;;;30.55;22.25;;;;;;;4.49;100.00;101077.22;5006423;28;20042;-74
2023/01/13 10:49:02;;;;;;;28.60;20.00;;;;;;;3.99;100.00;101058.97;4997968;28;20483;-75
2023/01/13 10:51:37;;;;;;;46.25;23.92;;;;;;;4.38;100.00;101066.47;5003111;28;20034;-76
2023/01/13 10:54:12;;;;;;;35.60;20.40;;;;;;;4.67;100.00;101117.69;5004499;28;20470;-76
2023/01/13 10:56:40;;;;;;;32.78;19.23;;;;;;;4.18;100.00;101008.59;5003921;28;20056;-74
2023/01/13 10:59:11;;;;;;;36.90;22.63;;;;;;;4.68;100.00;101109.06;5005497;28;20069;-77
2023/01/13 11:01:36;;;;;;;35.95;21.88;;;;;;;4.73;100.00;101086.69;5000365;28;20042;-79
2023/01/13 11:04:26;;;;;;;31.83;20.70;;;;;;;4.01;100.00;100971.66;5002910;28;20354;-76
2023/01/13 11:06:51;;;;;;;34.70;19.33;;;;;;;4.65;100.00;101076.03;4998107;28;20041;-75
2023/01/13 11:09:19;;;;;;;32.03;20.33;;;;;;;4.71;100.00;101065.88;5009435;28;20050;-77
2023/01/13 11:11:46;;;;;;;30.40;20.52;;;;;;;4.61;100.00;101093.28;5003126;28;20050;-77
2023/01/13 11:14:40;;;;;;;24.90;17.40;;;;;;;3.89;100.00;100968.63;5008488;28;20072;-76
2023/01/13 11:17:35;;;;;;;33.38;18.55;;;;;;;4.78;100.00;101088.66;5000084;28;20053;-75
2023/01/13 11:20:21;;;;;;;29.67;18.42;;;;;;;4.46;100.00;101091.84;4999998;28;20101;-77
2023/01/13 11:22:54;;;;;;;37.58;20.85;;;;;;;4.08;100.00;100940.72;5010189;28;20088;-75
2023/01/13 11:25:40;;;;;;;25.00;16.13;;;;;;;4.85;100.00;101071.53;5003035;28;20049;-77
2023/01/13 11:28:31;;;;;;;32.60;16.83;;;;;;;4.72;100.00;101038.16;5002806;28;20474;-76
2023/01/13 11:31:15;;;;;;;20.38;11.73;;;;;;;4.77;100.00;101044.38;5007254;28;20030;-76
2023/01/13 11:33:47;;;;;;;38.83;18.83;;;;;;;4.91;100.00;101084.72;5011720;28;20061;-76
2023/01/13 11:36:19;;;;;;;26.55;17.23;;;;;;;4.99;100.00;101079.81;5016564;28;20056;-76
2023/01/13 11:39:01;;;;;;;29.90;18.67;;;;;;;4.83;100.00;101055.00;5005852;28;20049;-75
2023/01/13 11:41:31;;;;;;;22.70;16.75;;;;;;;5.02;100.00;101061.69;5000967;28;20600;-76
2023/01/13 11:44:19;;;;;;;27.92;16.88;;;;;;;4.20;100.00;100941.13;5007748;28;20050;-76
2023/01/13 11:46:48;;;;;;;28.30;17.88;;;;;;;4.70;100.00;101003.44;4994549;28;20075;-76
2023/01/13 11:49:27;;;;;;;33.03;17.35;;;;;;;4.40;100.00;100947.91;5011042;28;20069;-76
2023/01/13 11:52:15;;;;;;;27.52;16.90;;;;;;;4.88;100.00;101029.16;5005531;28;20117;-77
2023/01/13 11:55:14;;;;;;;30.38;15.43;;;;;;;4.30;100.00;100935.41;5001908;28;20132;-75
2023/01/13 11:58:12;;;;;;;22.48;15.27;;;;;;;5.10;100.00;101056.75;4993093;28;20061;-78
2023/01/13 12:00:58;;;;;;;25.88;15.98;;;;;;;4.91;100.00;101017.13;4998310;28;20068;-78
2023/01/13 12:03:34;;;;;;;28.02;17.88;;;;;;;4.35;100.00;100919.97;5003643;28;20490;-76
2023/01/13 12:06:14;;;;;;;24.52;16.38;;;;;;;5.16;100.00;101056.94;4999454;28;20046;-80
2023/01/13 12:09:14;;;;;;;33.10;15.73;;;;;;;4.99;100.00;101040.81;5000844;28;20058;-77
2023/01/13 12:14:52;;;;;;;27.92;16.75;;;;;;;5.04;100.00;101019.31;4999609;28;20138;-75